Ana Sayfa
METAR-TAF:

METAR-TAF

Havaalanları :

Bahreyn, Bahreyn

Enlem: 26-16N, Boylam: 050-39E, yükseklik: 2 m

Güncel hava durumu gözlemi

Rapor saat 22:00 UTC de 39 dakika önce yapıldı.
Rüzgar doğu/güneydoğudan 2 kt
Sıcaklık 32°C
Nem 75%
Basınç 1004 hPa
Görüş mesafesi: 7000 m
Açık gökyüzü

METAR: OBBI 202200Z 11002KT 7000 SKC 32/27 Q1004 NOSIG

Saat: 01:39 (22:39 UTC)

Tahmin

Rapor saat 17:00 UTC de 5 saat ve 39 dakika önce yapıldı.
Ayın 20'si saat 18 UTC'den ayın 22'si saat 00 UTC'ye kadar geçerli Tahmin
Rüzgar değişken yönden 5 kt
Görüş mesafesi: 7000 m
Olasılık 30% :
Geçici
ayın 20'si saat 23 UTC'den ayın 21'si saat 04 UTC'ye kadar
Görüş mesafesi: 5000 m
Toz Pusu
Dönüşüyor
ayın 21'si saat 07 UTC'den ayın 21'si saat 09 UTC'ye kadar
Rüzgar doğu/kuzeydoğudan 10 kt

TAF: OBBI 201700Z 2018/2200 VRB05KT 7000 NSC PROB30 TEMPO 2023/2104 5000 HZ BECMG 2107/2109 06010KT

4.000'den fazla havaalanı için hava durumu gözlemleri ve tahminleri (METAR ve TAF raporları).

Kullanılabilir istasyonlar harita üzerinde sarı ve kırmızı noktalarla gösterilir.

İstasyonun adını görmek için fareyi noktanın üzerinde gezdirin.

Sonrasında hava gözlem ve tahminlerini görmek için tıklayın.

Haritayı değiştirmek için: yaklaştırmak için siyah artı işaretli yeşil düğmeye ve uzaklaştırmak için de eksi işaretli düğmeye hızla tıklayın; bitişik haritalar için yeşil okları kullanın.


METAR-TAF: